Time;durP1;ratioP1;P1;durP2;ratioP2;P2;SDS_P1;SDS_P2;PMS_P1;PMS_P2;Temp;Humidity;BMP_temperature;BMP_pressure;BME280_temperature;BME280_humidity;BME280_pressure;Samples;Min_cycle;Max_cycle;Signal;HPM_P1;HPM_P2
2022/09/08 00:00:39;;;;;;;0.30;0.30;;;;;;;19.54;90.13;94981.91;4331214;32;20181;-59
2022/09/08 00:03:19;;;;;;;1.70;1.17;;;;;;;19.56;90.20;94980.41;4375054;32;20248;-59
2022/09/08 00:06:07;;;;;;;1.40;0.87;;;;;;;19.57;89.77;94983.88;4355527;32;20260;-59
2022/09/08 00:08:36;;;;;;;0.70;0.70;;;;;;;19.54;89.69;94981.91;4355331;32;20187;-59
2022/09/08 00:11:07;;;;;;;0.50;0.50;;;;;;;19.51;89.72;94980.72;4314574;32;20185;-59
2022/09/08 00:13:35;;;;;;;1.33;1.13;;;;;;;19.42;90.42;94973.97;4345734;32;20177;-59
2022/09/08 00:16:07;;;;;;;0.77;0.77;;;;;;;19.39;90.85;94967.41;4350518;32;20182;-59
2022/09/08 00:18:35;;;;;;;1.70;1.60;;;;;;;19.34;91.84;94972.28;4367825;32;20196;-59
2022/09/08 00:21:10;;;;;;;0.37;0.37;;;;;;;19.33;91.64;94982.25;4358420;32;20188;-59
2022/09/08 00:23:37;;;;;;;0.77;0.77;;;;;;;19.43;91.66;94987.06;4345172;32;20187;-59
2022/09/08 00:26:05;;;;;;;0.50;0.50;;;;;;;19.28;91.71;94982.59;4358526;32;20220;-59
2022/09/08 00:28:31;;;;;;;0.40;0.40;;;;;;;19.23;91.67;94985.56;4349730;32;20195;-59
2022/09/08 00:30:58;;;;;;;0.40;0.40;;;;;;;19.15;92.35;95000.78;4361034;32;20224;-59
2022/09/08 00:33:23;;;;;;;1.40;0.83;;;;;;;19.04;92.74;94997.12;4356938;32;20200;-59
2022/09/08 00:35:51;;;;;;;0.83;0.67;;;;;;;19.10;92.16;95001.09;4298100;32;20185;-59
2022/09/08 00:38:19;;;;;;;0.50;0.50;;;;;;;19.10;91.97;94993.00;4360642;32;20196;-59
2022/09/08 00:40:46;;;;;;;0.40;0.40;;;;;;;19.06;93.03;95018.28;4348583;32;20289;-59
2022/09/08 00:43:58;;;;;;;0.77;0.50;;;;;;;18.93;93.01;95014.94;4344673;32;20185;-59
2022/09/08 00:46:43;;;;;;;6.87;0.83;;;;;;;18.97;93.40;95009.63;4309154;33;20185;-59
2022/09/08 00:49:20;;;;;;;0.63;0.63;;;;;;;18.93;93.06;95009.56;4311641;32;20190;-60
2022/09/08 00:51:52;;;;;;;0.23;0.23;;;;;;;18.88;94.21;95007.16;4305225;33;20512;-60
2022/09/08 00:54:24;;;;;;;0.40;0.40;;;;;;;18.96;93.86;94991.94;4342359;32;20188;-59
2022/09/08 00:56:57;;;;;;;0.37;0.37;;;;;;;18.85;93.00;94992.53;4309337;32;20196;-59
2022/09/08 00:59:25;;;;;;;0.63;0.63;;;;;;;18.82;95.18;94997.81;4370823;32;20219;-59
2022/09/08 01:01:56;;;;;;;0.40;0.40;;;;;;;18.94;94.52;94992.28;4323762;32;20188;-59
2022/09/08 01:04:32;;;;;;;2.53;0.60;;;;;;;19.00;93.83;94992.78;4362856;32;20189;-59
2022/09/08 01:13:14;;;;;;;0.73;0.73;;;;;;;18.89;93.72;95003.34;4319844;32;20231;-59
2022/09/08 01:15:40;;;;;;;0.73;0.73;;;;;;;18.81;93.68;94998.94;4356029;32;20184;-59
2022/09/08 01:18:08;;;;;;;0.50;0.50;;;;;;;18.74;94.08;94991.50;4346622;32;20304;-59
2022/09/08 01:20:50;;;;;;;0.57;0.57;;;;;;;18.77;94.13;94960.47;4350002;32;20192;-59
2022/09/08 01:24:00;;;;;;;0.20;0.20;;;;;;;18.83;93.77;94953.69;4337541;32;20273;-59
2022/09/08 01:27:02;;;;;;;0.30;0.30;;;;;;;18.81;94.59;94969.38;4321958;32;20196;-60
2022/09/08 01:29:29;;;;;;;0.40;0.40;;;;;;;18.88;95.35;94980.28;4342944;32;20177;-59
2022/09/08 01:32:02;;;;;;;0.80;0.80;;;;;;;18.79;95.27;94988.56;4325280;32;20196;-64
2022/09/08 01:34:37;;;;;;;0.47;0.47;;;;;;;18.82;95.25;94969.03;4343282;32;20251;-60
2022/09/08 01:37:04;;;;;;;5.53;1.30;;;;;;;18.83;96.75;94975.97;4351888;32;20232;-59
2022/09/08 01:39:31;;;;;;;0.27;0.27;;;;;;;18.79;96.43;94987.78;4357206;32;20339;-60
2022/09/08 01:41:57;;;;;;;0.93;0.93;;;;;;;18.71;95.99;95002.97;4374537;32;20184;-59
2022/09/08 01:44:25;;;;;;;1.87;1.07;;;;;;;18.54;96.38;95017.56;4356941;32;20208;-59
2022/09/08 01:46:52;;;;;;;0.70;0.70;;;;;;;18.42;96.91;95006.94;4332676;32;20201;-59
2022/09/08 01:49:19;;;;;;;0.57;0.57;;;;;;;18.47;98.28;95009.37;4362207;32;20279;-60
2022/09/08 01:51:45;;;;;;;0.70;0.70;;;;;;;18.55;97.79;95021.03;4372932;32;20283;-59
2022/09/08 01:54:11;;;;;;;1.27;0.77;;;;;;;18.48;97.67;95018.19;4311265;32;20190;-59
2022/09/08 01:56:36;;;;;;;1.77;1.37;;;;;;;18.50;97.39;95019.38;4354561;32;20240;-59
2022/09/08 01:59:04;;;;;;;0.60;0.60;;;;;;;18.48;98.11;95018.97;4345930;32;20189;-60
2022/09/08 02:01:29;;;;;;;0.67;0.40;;;;;;;18.54;96.79;95014.88;4341105;32;20250;-60
2022/09/08 02:03:57;;;;;;;0.70;0.70;;;;;;;18.49;96.33;95007.09;4380989;32;20191;-63
2022/09/08 02:06:24;;;;;;;0.43;0.43;;;;;;;18.51;96.95;95007.50;4363414;32;20244;-60
2022/09/08 02:08:51;;;;;;;1.50;0.80;;;;;;;18.48;97.53;95010.13;4366383;32;20197;-59
2022/09/08 02:11:19;;;;;;;0.50;0.50;;;;;;;18.57;98.01;95010.69;4354437;32;20251;-59
2022/09/08 02:13:46;;;;;;;0.10;0.10;;;;;;;18.38;97.17;95011.44;4341166;32;20294;-59
2022/09/08 02:16:12;;;;;;;0.80;0.80;;;;;;;18.36;96.38;95002.97;4351241;32;20219;-60
2022/09/08 02:18:38;;;;;;;0.40;0.40;;;;;;;18.32;96.26;95002.09;4364735;32;20239;-59
2022/09/08 02:21:32;;;;;;;2.83;0.60;;;;;;;18.46;97.21;95002.44;4359176;32;20181;-59
2022/09/08 02:23:59;;;;;;;0.50;0.50;;;;;;;18.43;97.34;95000.44;4329139;32;20233;-60
2022/09/08 02:26:28;;;;;;;6.23;1.13;;;;;;;18.34;97.15;94993.69;4353514;32;20204;-61
2022/09/08 02:29:00;;;;;;;2.00;0.60;;;;;;;18.39;96.78;95010.31;4360857;32;20197;-59
2022/09/08 02:31:28;;;;;;;0.67;0.67;;;;;;;18.28;95.92;95003.94;4357740;32;20192;-59
2022/09/08 02:33:55;;;;;;;0.20;0.20;;;;;;;18.16;96.73;94998.66;4362489;32;20205;-67
2022/09/08 02:36:22;;;;;;;0.50;0.50;;;;;;;18.13;95.01;94994.78;4351865;32;20197;-59
2022/09/08 02:38:51;;;;;;;0.47;0.37;;;;;;;17.96;95.85;94994.37;4315807;32;20193;-60
2022/09/08 02:41:17;;;;;;;2.90;0.90;;;;;;;18.02;96.07;94995.66;4348798;32;20307;-59
2022/09/08 02:43:44;;;;;;;0.30;0.17;;;;;;;17.95;96.78;95003.53;4353993;32;20190;-59
2022/09/08 02:46:11;;;;;;;2.60;0.83;;;;;;;17.95;95.79;95008.91;4353393;32;20196;-60
2022/09/08 02:48:37;;;;;;;0.47;0.47;;;;;;;18.02;95.14;94988.41;4351903;32;20199;-59
2022/09/08 02:51:09;;;;;;;0.33;0.33;;;;;;;18.17;95.99;94981.44;4359434;32;20188;-59
2022/09/08 02:53:38;;;;;;;0.20;0.20;;;;;;;18.16;95.92;94980.66;4338745;32;20189;-59
2022/09/08 02:56:09;;;;;;;0.30;0.30;;;;;;;18.22;96.03;94975.78;4321676;32;20201;-58
2022/09/08 02:58:40;;;;;;;0.60;0.60;;;;;;;18.18;94.10;94962.28;4353783;32;20247;-59
2022/09/08 03:01:08;;;;;;;0.30;0.30;;;;;;;18.25;94.77;94969.72;4349712;32;20193;-59
2022/09/08 03:03:34;;;;;;;0.37;0.37;;;;;;;18.19;95.98;94965.75;4356094;32;20186;-59
2022/09/08 03:06:02;;;;;;;0.63;0.47;;;;;;;18.26;96.08;94960.53;4344799;32;20187;-59
2022/09/08 03:08:36;;;;;;;0.10;0.10;;;;;;;18.26;94.84;94960.53;4332680;32;20244;-59
2022/09/08 03:11:06;;;;;;;0.37;0.37;;;;;;;18.45;95.45;94954.41;4313000;32;20189;-59
2022/09/08 03:13:36;;;;;;;0.30;0.30;;;;;;;18.63;95.29;94952.12;4331977;32;20262;-59
2022/09/08 03:16:10;;;;;;;0.20;0.20;;;;;;;18.49;93.49;94948.00;4362842;32;20185;-59
2022/09/08 03:18:37;;;;;;;1.70;0.63;;;;;;;18.46;94.72;94945.22;4342022;32;20181;-59
2022/09/08 03:21:09;;;;;;;0.40;0.40;;;;;;;18.37;94.29;94948.13;4356731;32;20185;-59
2022/09/08 03:23:38;;;;;;;0.50;0.50;;;;;;;18.41;94.79;94937.44;4340397;32;20201;-59
2022/09/08 03:26:12;;;;;;;0.30;0.30;;;;;;;18.49;93.71;94934.56;4364043;32;20181;-58
2022/09/08 03:28:40;;;;;;;0.27;0.27;;;;;;;18.43;92.48;94927.91;4365464;32;20265;-59
2022/09/08 03:31:10;;;;;;;0.50;0.50;;;;;;;18.51;94.03;94924.22;4368652;32;20203;-59
2022/09/08 03:33:36;;;;;;;0.37;0.37;;;;;;;18.43;94.60;94913.69;4342804;32;20220;-59
2022/09/08 03:36:11;;;;;;;0.50;0.50;;;;;;;18.47;93.92;94918.03;4318479;32;20189;-59
2022/09/08 03:38:37;;;;;;;0.63;0.43;;;;;;;18.37;94.73;94915.88;4340149;32;20181;-59
2022/09/08 03:41:09;;;;;;;3.70;0.60;;;;;;;18.37;94.58;94907.81;4354036;32;20176;-59
2022/09/08 03:43:37;;;;;;;0.50;0.50;;;;;;;18.25;94.75;94907.97;4327651;32;20169;-59
2022/09/08 03:46:09;;;;;;;0.30;0.27;;;;;;;18.42;94.96;94915.59;4337941;32;20208;-60
2022/09/08 03:48:39;;;;;;;0.20;0.20;;;;;;;18.36;93.69;94922.38;4339856;32;20288;-60
2022/09/08 03:51:22;;;;;;;0.37;0.37;;;;;;;18.20;93.86;94908.22;4352956;32;20180;-60
2022/09/08 03:53:52;;;;;;;2.57;0.80;;;;;;;18.38;94.74;94898.62;4357464;32;20186;-60
2022/09/08 03:56:20;;;;;;;0.73;0.73;;;;;;;18.38;94.72;94890.56;4338654;32;20227;-60
2022/09/08 03:58:49;;;;;;;1.27;0.30;;;;;;;18.38;93.86;94890.56;4355626;32;20186;-60
2022/09/08 04:01:17;;;;;;;0.57;0.57;;;;;;;18.59;94.70;94897.50;4349929;32;23555;-60
2022/09/08 04:03:44;;;;;;;0.30;0.30;;;;;;;18.41;93.85;94894.47;4324080;32;20190;-60
2022/09/08 04:06:13;;;;;;;0.40;0.40;;;;;;;18.43;95.17;94895.69;4321592;32;20302;-60
2022/09/08 04:08:39;;;;;;;0.63;0.60;;;;;;;18.44;94.63;94891.06;4326180;32;20203;-60
2022/09/08 04:11:09;;;;;;;0.77;0.77;;;;;;;18.56;94.49;94893.63;4359977;32;20181;-60
2022/09/08 04:13:38;;;;;;;0.40;0.40;;;;;;;18.62;93.89;94902.19;4351008;32;20177;-60
2022/09/08 04:16:07;;;;;;;0.57;0.57;;;;;;;18.63;93.60;94909.91;4348976;32;20185;-60
2022/09/08 04:18:33;;;;;;;0.60;0.60;;;;;;;18.52;93.16;94909.66;4336995;32;20226;-60
2022/09/08 04:21:11;;;;;;;0.10;0.10;;;;;;;18.47;92.09;94909.19;4327107;32;20196;-60
2022/09/08 04:23:44;;;;;;;2.67;0.43;;;;;;;18.54;93.28;94906.62;4342235;32;20195;-60
2022/09/08 04:26:12;;;;;;;0.50;0.50;;;;;;;18.44;92.64;94902.59;4333495;32;20190;-60
2022/09/08 04:28:41;;;;;;;0.20;0.20;;;;;;;18.49;93.65;94909.59;4367026;32;20184;-60
2022/09/08 04:31:13;;;;;;;0.20;0.20;;;;;;;18.48;94.36;94922.25;4335830;32;20208;-60
2022/09/08 04:33:40;;;;;;;0.40;0.40;;;;;;;18.53;93.79;94927.34;4345645;32;20196;-60
2022/09/08 04:36:13;;;;;;;0.20;0.20;;;;;;;18.38;93.39;94927.41;4357152;32;20200;-60
2022/09/08 04:38:45;;;;;;;0.47;0.47;;;;;;;18.47;93.13;94938.72;4348151;32;20272;-60
2022/09/08 04:41:15;;;;;;;0.10;0.10;;;;;;;18.35;92.66;94941.53;4336580;32;20219;-60
2022/09/08 04:43:46;;;;;;;0.20;0.20;;;;;;;18.23;92.85;94944.34;4329508;32;20223;-60
2022/09/08 04:46:14;;;;;;;0.93;0.50;;;;;;;18.09;94.46;94944.78;4320597;32;20197;-61
2022/09/08 04:48:43;;;;;;;0.10;0.10;;;;;;;18.10;94.50;94951.72;4346295;32;20272;-60
2022/09/08 04:51:12;;;;;;;0.40;0.10;;;;;;;18.01;93.23;94946.56;4341654;32;20200;-60
2022/09/08 04:53:38;;;;;;;0.20;0.20;;;;;;;18.02;93.40;94955.41;4313087;32;20248;-60
2022/09/08 04:56:11;;;;;;;0.83;0.53;;;;;;;17.85;92.78;94956.56;4368572;32;20185;-60
2022/09/08 04:58:39;;;;;;;0.30;0.30;;;;;;;17.99;95.02;94966.81;4335727;32;20189;-60
2022/09/08 05:01:08;;;;;;;0.13;0.13;;;;;;;17.99;94.44;94969.50;4332744;32;20180;-60
2022/09/08 05:03:36;;;;;;;0.30;0.30;;;;;;;17.83;93.96;94974.91;4313371;32;20257;-61
2022/09/08 05:06:15;;;;;;;1.60;0.20;;;;;;;18.02;95.25;94982.25;4328003;32;20281;-59
2022/09/08 05:08:46;;;;;;;1.03;0.40;;;;;;;17.97;93.91;94990.56;4314536;32;20223;-59
2022/09/08 05:11:12;;;;;;;0.10;0.10;;;;;;;18.05;94.63;94994.97;4321143;32;20195;-59
2022/09/08 05:13:42;;;;;;;0.23;0.23;;;;;;;18.06;94.98;94996.53;4355152;32;20238;-58
2022/09/08 05:16:14;;;;;;;0.47;0.30;;;;;;;17.79;93.47;95001.66;4347344;32;20227;-59
2022/09/08 05:18:41;;;;;;;0.63;0.43;;;;;;;17.94;94.46;95000.06;4342401;32;20205;-60
2022/09/08 05:21:08;;;;;;;0.20;0.20;;;;;;;17.87;93.70;94999.16;4343836;32;20192;-59
2022/09/08 05:23:34;;;;;;;0.33;0.33;;;;;;;17.74;93.47;95004.59;4343640;32;20243;-59
2022/09/08 05:26:11;;;;;;;0.10;0.10;;;;;;;17.79;92.83;95011.59;4343033;32;20193;-59
2022/09/08 05:28:39;;;;;;;0.40;0.40;;;;;;;17.91;94.39;95010.72;4339647;32;20188;-59
2022/09/08 05:31:15;;;;;;;0.20;0.20;;;;;;;18.00;93.88;95016.72;4326924;32;20243;-59
2022/09/08 05:33:45;;;;;;;0.20;0.20;;;;;;;17.93;93.82;95013.84;4358639;32;20177;-59
2022/09/08 05:36:21;;;;;;;0.17;0.17;;;;;;;17.95;92.95;95023.09;4353016;32;20199;-60
2022/09/08 05:38:48;;;;;;;0.73;0.03;;;;;;;17.81;92.81;95017.41;4337093;32;20197;-59
2022/09/08 05:41:17;;;;;;;0.30;0.30;;;;;;;17.82;92.58;95025.13;4341234;32;20196;-59
2022/09/08 05:43:44;;;;;;;0.20;0.20;;;;;;;17.89;93.21;95021.81;4362044;32;20178;-62
2022/09/08 05:46:12;;;;;;;0.57;0.30;;;;;;;17.84;91.23;95019.41;4379831;32;20196;-60
2022/09/08 05:48:38;;;;;;;0.03;0.03;;;;;;;17.94;90.62;95018.09;4353900;32;20185;-59
2022/09/08 05:51:10;;;;;;;0.57;0.43;;;;;;;17.87;89.34;95023.31;4352591;32;20188;-59
2022/09/08 05:53:36;;;;;;;0.20;0.20;;;;;;;17.86;88.90;95011.78;4366036;32;20173;-59
2022/09/08 05:56:07;;;;;;;0.10;0.10;;;;;;;17.80;88.88;95015.84;4345854;32;20185;-59
2022/09/08 05:58:35;;;;;;;0.00;0.00;;;;;;;17.87;88.93;95017.94;4363177;32;20173;-61
2022/09/08 06:01:11;;;;;;;0.00;0.00;;;;;;;17.90;87.10;95009.16;4368771;32;20222;-61
2022/09/08 06:03:38;;;;;;;2.43;0.33;;;;;;;17.87;87.03;95015.25;4341647;32;20189;-59
2022/09/08 06:06:10;;;;;;;0.13;0.13;;;;;;;17.91;88.35;95013.41;4364440;32;20181;-59
2022/09/08 06:08:41;;;;;;;0.23;0.23;;;;;;;17.95;86.68;95016.97;4359974;32;20273;-59
2022/09/08 06:11:09;;;;;;;0.10;0.10;;;;;;;18.06;85.81;95031.44;4348910;32;20174;-58
2022/09/08 06:13:36;;;;;;;0.20;0.20;;;;;;;18.01;86.50;95029.00;4353144;32;20269;-59
2022/09/08 06:16:07;;;;;;;0.13;0.13;;;;;;;17.94;85.67;95028.81;4340656;32;20307;-59
2022/09/08 06:18:39;;;;;;;0.50;0.20;;;;;;;17.99;86.00;95037.41;4335508;32;20200;-59
2022/09/08 06:21:27;;;;;;;0.27;0.20;;;;;;;18.07;84.12;95033.00;4343245;32;20181;-59
2022/09/08 06:23:57;;;;;;;0.40;0.30;;;;;;;18.12;84.19;95043.44;4363662;32;20188;-59
2022/09/08 06:27:01;;;;;;;0.00;0.00;;;;;;;18.12;85.64;95035.38;4357317;32;20181;-59
2022/09/08 06:30:04;;;;;;;0.10;0.10;;;;;;;18.04;83.44;95039.84;4357891;32;20280;-59
2022/09/08 06:32:53;;;;;;;0.27;0.27;;;;;;;18.10;83.37;95040.31;4305992;32;20199;-60
2022/09/08 06:35:45;;;;;;;0.63;0.10;;;;;;;17.97;83.42;95034.28;4317983;32;20288;-61
2022/09/08 06:38:21;;;;;;;0.20;0.20;;;;;;;18.05;84.03;95036.03;4354050;32;20199;-60
2022/09/08 06:41:00;;;;;;;0.10;0.10;;;;;;;18.12;86.19;95040.75;4343135;32;20248;-60
2022/09/08 06:43:46;;;;;;;0.40;0.30;;;;;;;18.05;85.00;95051.34;4345857;32;20202;-61
2022/09/08 06:46:17;;;;;;;0.30;0.30;;;;;;;18.17;82.29;95051.25;4349849;32;20268;-60
2022/09/08 06:48:45;;;;;;;0.23;0.23;;;;;;;18.12;82.89;95049.59;4304820;32;20199;-60
2022/09/08 06:51:35;;;;;;;1.17;0.30;;;;;;;18.07;84.92;95060.63;4316193;32;20239;-59
2022/09/08 06:54:19;;;;;;;0.20;0.20;;;;;;;18.11;83.84;95060.69;4363085;32;20245;-61
2022/09/08 06:57:26;;;;;;;0.23;0.20;;;;;;;18.20;83.26;95070.13;4334342;32;20174;-60
2022/09/08 07:00:13;;;;;;;0.10;0.10;;;;;;;18.08;83.55;95072.13;4357674;32;20180;-60
2022/09/08 07:03:16;;;;;;;0.20;0.20;;;;;;;17.87;84.96;95085.03;4355730;32;20213;-60
2022/09/08 07:06:23;;;;;;;0.20;0.07;;;;;;;17.83;86.50;95085.72;4341377;32;20238;-60
2022/09/08 07:09:26;;;;;;;0.20;0.20;;;;;;;17.85;87.05;95085.37;4321010;33;20369;-60
2022/09/08 07:12:16;;;;;;;0.03;0.03;;;;;;;17.94;89.87;95087.88;4293386;33;20200;-60
2022/09/08 07:15:12;;;;;;;0.40;0.20;;;;;;;17.70;88.60;95094.94;4285914;33;20244;-60
2022/09/08 07:18:15;;;;;;;0.33;0.33;;;;;;;17.62;89.80;95103.13;4307770;33;20189;-60
2022/09/08 07:20:43;;;;;;;0.00;0.00;;;;;;;17.55;91.43;95111.75;4329129;32;20180;-61
2022/09/08 07:23:32;;;;;;;0.50;0.33;;;;;;;17.40;92.08;95105.25;4332607;32;20224;-60
2022/09/08 07:26:16;;;;;;;0.10;0.10;;;;;;;17.40;92.12;95115.19;4330183;32;20181;-60
2022/09/08 07:28:47;;;;;;;0.10;0.10;;;;;;;17.22;93.48;95113.91;4347903;32;20199;-61
2022/09/08 07:31:23;;;;;;;0.00;0.00;;;;;;;17.30;94.34;95121.03;4349308;32;20177;-69
2022/09/08 07:34:04;;;;;;;0.17;0.17;;;;;;;17.25;94.38;95121.28;4343182;32;20307;-69
2022/09/08 07:36:50;;;;;;;0.10;0.10;;;;;;;17.18;95.69;95125.31;4341005;32;20203;-68
2022/09/08 07:39:25;;;;;;;0.17;0.17;;;;;;;17.08;97.01;95125.78;4363908;32;20289;-68
2022/09/08 07:42:16;;;;;;;0.13;0.10;;;;;;;16.79;97.92;95120.72;4334719;32;20180;-70
2022/09/08 07:44:43;;;;;;;0.20;0.20;;;;;;;16.47;100.00;95125.81;4362235;32;20189;-70
2022/09/08 07:47:27;;;;;;;0.37;0.37;;;;;;;16.53;100.00;95128.28;4336401;32;20231;-70
2022/09/08 07:53:38;;;;;;;0.37;0.37;;;;;;;16.63;100.00;95125.97;4339360;32;20222;-70
2022/09/08 07:56:41;;;;;;;0.10;0.10;;;;;;;16.67;100.00;95118.03;4264219;32;20246;-70
2022/09/08 07:59:48;;;;;;;3.30;0.33;;;;;;;16.64;100.00;95118.69;4340423;32;20207;-70
2022/09/08 08:02:42;;;;;;;0.20;0.20;;;;;;;16.72;100.00;95120.50;4354196;32;20216;-70
2022/09/08 08:05:33;;;;;;;0.20;0.20;;;;;;;16.70;100.00;95112.78;4356609;32;20292;-70
2022/09/08 08:08:37;;;;;;;0.23;0.23;;;;;;;16.61;100.00;95108.66;4327410;32;20181;-70
2022/09/08 08:11:33;;;;;;;0.37;0.37;;;;;;;16.84;100.00;95110.53;4326083;32;20189;-70
2022/09/08 08:14:24;;;;;;;0.00;0.00;;;;;;;16.90;100.00;95104.94;4355359;32;20211;-70
2022/09/08 08:17:17;;;;;;;0.23;0.23;;;;;;;16.86;100.00;95098.69;4354707;32;20181;-70
2022/09/08 08:20:16;;;;;;;0.50;0.50;;;;;;;17.05;99.86;95105.00;4370085;32;20219;-71
2022/09/08 08:23:18;;;;;;;0.07;0.07;;;;;;;17.01;99.18;95109.50;4360925;32;20185;-70
2022/09/08 08:26:25;;;;;;;0.20;0.20;;;;;;;16.98;98.87;95096.78;4353872;32;20306;-70
2022/09/08 08:29:05;;;;;;;0.10;0.10;;;;;;;16.88;98.66;95105.28;4358776;32;20230;-71
2022/09/08 08:32:27;;;;;;;2.63;0.77;;;;;;;16.99;99.43;95109.06;4332054;32;20262;-70
2022/09/08 08:35:18;;;;;;;0.10;0.10;;;;;;;17.12;99.02;95112.47;4323104;32;20193;-70
2022/09/08 08:37:50;;;;;;;0.20;0.20;;;;;;;17.07;99.29;95116.16;4361293;32;20188;-70
2022/09/08 08:40:56;;;;;;;0.53;0.40;;;;;;;17.16;98.59;95126.78;4345911;32;20326;-70
2022/09/08 08:44:04;;;;;;;0.20;0.20;;;;;;;17.05;97.15;95134.50;4348879;32;20181;-70
2022/09/08 08:47:14;;;;;;;0.97;0.47;;;;;;;17.07;98.32;95137.63;4354282;32;20185;-70
2022/09/08 08:50:15;;;;;;;0.17;0.10;;;;;;;17.10;98.45;95144.97;4314061;32;20181;-71
2022/09/08 08:53:25;;;;;;;0.13;0.13;;;;;;;17.03;97.86;95149.38;4364411;32;20188;-70
2022/09/08 08:55:53;;;;;;;0.00;0.00;;;;;;;17.04;98.68;95143.66;4342130;32;20189;-70
2022/09/08 08:58:50;;;;;;;0.33;0.30;;;;;;;17.15;99.03;95139.41;4349922;32;20295;-70
2022/09/08 09:01:27;;;;;;;0.10;0.03;;;;;;;17.34;98.62;95138.78;4344425;32;20267;-71
2022/09/08 09:04:18;;;;;;;0.00;0.00;;;;;;;17.31;96.63;95152.09;4376385;32;20274;-71
2022/09/08 09:07:01;;;;;;;5.00;1.00;;;;;;;17.33;95.63;95137.22;4352383;32;20180;-70
2022/09/08 09:10:04;;;;;;;0.23;0.23;;;;;;;17.29;95.46;95138.22;4336918;32;20265;-70
2022/09/08 09:13:07;;;;;;;0.30;0.30;;;;;;;17.28;96.75;95144.72;4359743;32;20198;-70
2022/09/08 09:16:12;;;;;;;0.00;0.00;;;;;;;17.28;96.10;95142.81;4350931;32;20233;-70
2022/09/08 09:19:07;;;;;;;0.27;0.27;;;;;;;17.40;96.14;95131.28;4373394;32;20184;-70
2022/09/08 09:22:03;;;;;;;0.30;0.30;;;;;;;17.33;94.46;95125.72;4378743;32;20188;-71
2022/09/08 09:25:13;;;;;;;7.83;0.53;;;;;;;17.53;94.91;95130.09;4343789;32;20192;-70
2022/09/08 09:27:54;;;;;;;0.87;0.50;;;;;;;17.52;95.47;95123.19;4351581;32;20212;-70
2022/09/08 09:30:26;;;;;;;0.17;0.17;;;;;;;17.83;95.32;95125.19;4362930;32;20184;-70
2022/09/08 09:33:03;;;;;;;0.17;0.17;;;;;;;17.79;94.00;95125.09;4351308;32;20185;-70
2022/09/08 09:35:47;;;;;;;0.30;0.30;;;;;;;17.92;93.93;95125.78;4335783;32;20202;-69
2022/09/08 09:38:56;;;;;;;0.10;0.10;;;;;;;18.08;92.65;95109.72;4360772;32;20193;-70
2022/09/08 09:42:09;;;;;;;0.40;0.40;;;;;;;17.99;91.61;95119.84;4377488;32;20255;-70
2022/09/08 09:45:13;;;;;;;0.10;0.10;;;;;;;18.07;91.24;95122.37;4329571;32;20196;-70
2022/09/08 09:48:07;;;;;;;0.07;0.07;;;;;;;18.22;88.65;95134.25;4384555;32;20238;-70
2022/09/08 09:51:11;;;;;;;0.17;0.17;;;;;;;18.20;90.83;95128.44;4343951;32;20192;-70
2022/09/08 09:54:01;;;;;;;0.40;0.40;;;;;;;18.24;87.22;95123.94;4329844;32;20192;-70
2022/09/08 09:57:23;;;;;;;0.10;0.10;;;;;;;18.28;87.92;95124.81;4324913;32;20180;-70
2022/09/08 10:00:13;;;;;;;0.83;0.50;;;;;;;18.36;86.33;95123.84;4281592;33;20182;-70
2022/09/08 10:02:53;;;;;;;0.43;0.43;;;;;;;18.38;86.61;95135.00;4341181;32;20181;-69
2022/09/08 10:06:14;;;;;;;0.10;0.10;;;;;;;18.35;84.01;95130.31;4344845;32;20260;-69
2022/09/08 10:09:19;;;;;;;0.00;0.00;;;;;;;18.35;83.27;95145.66;4334102;32;20186;-69
2022/09/08 10:12:20;;;;;;;0.17;0.17;;;;;;;18.25;82.38;95136.22;4322909;32;20209;-69
2022/09/08 10:15:09;;;;;;;0.00;0.00;;;;;;;18.30;83.75;95144.00;4334503;32;21414;-69
2022/09/08 10:17:47;;;;;;;1.10;0.77;;;;;;;18.29;83.67;95139.00;4321517;32;20189;-69
2022/09/08 10:20:32;;;;;;;0.10;0.10;;;;;;;18.46;81.88;95142.12;4337944;32;20189;-68
2022/09/08 10:23:42;;;;;;;0.10;0.10;;;;;;;18.47;81.30;95132.16;4333687;32;20177;-68
2022/09/08 10:26:26;;;;;;;0.10;0.10;;;;;;;18.45;82.43;95137.87;4338240;32;20218;-69
2022/09/08 10:29:24;;;;;;;0.10;0.10;;;;;;;18.62;82.06;95128.69;4347191;32;20203;-68
2022/09/08 10:32:27;;;;;;;0.43;0.40;;;;;;;18.64;82.37;95131.81;4329121;32;20191;-69
2022/09/08 10:35:17;;;;;;;0.13;0.13;;;;;;;18.54;79.87;95133.09;4332338;32;20188;-69
2022/09/08 10:38:03;;;;;;;0.20;0.20;;;;;;;18.52;79.94;95135.34;4350685;32;20169;-69
2022/09/08 10:41:00;;;;;;;0.20;0.20;;;;;;;18.58;80.95;95122.44;4336560;32;20185;-69
2022/09/08 10:44:28;;;;;;;0.33;0.30;;;;;;;18.65;80.14;95132.59;4333831;32;20220;-69
2022/09/08 10:47:25;;;;;;;0.20;0.20;;;;;;;18.73;81.58;95128.94;4311355;32;20229;-68
2022/09/08 10:50:23;;;;;;;0.20;0.20;;;;;;;18.87;82.41;95126.59;4370928;32;20272;-69
2022/09/08 10:53:26;;;;;;;0.10;0.10;;;;;;;18.96;82.06;95124.47;4328653;32;20210;-68
2022/09/08 10:56:18;;;;;;;0.10;0.10;;;;;;;19.02;80.16;95124.97;4309666;32;20259;-68
2022/09/08 10:59:08;;;;;;;0.00;0.00;;;;;;;19.07;78.36;95119.31;4306605;32;20239;-68
2022/09/08 11:02:18;;;;;;;0.30;0.23;;;;;;;18.95;76.37;95117.53;4351715;32;20236;-68
2022/09/08 11:05:42;;;;;;;0.00;0.00;;;;;;;18.85;75.40;95126.16;4307858;32;20239;-68
2022/09/08 11:08:37;;;;;;;0.43;0.20;;;;;;;18.90;77.24;95123.19;4319496;32;20189;-69
2022/09/08 11:11:27;;;;;;;0.10;0.10;;;;;;;18.93;77.58;95127.06;4372686;32;20242;-68
2022/09/08 11:14:04;;;;;;;0.10;0.10;;;;;;;18.89;75.89;95127.00;4366587;32;20226;-68
2022/09/08 11:17:04;;;;;;;0.27;0.27;;;;;;;18.93;74.46;95122.47;4352232;32;20310;-67
2022/09/08 11:19:32;;;;;;;0.10;0.10;;;;;;;18.99;76.05;95122.97;4333827;32;20204;-68
2022/09/08 11:22:19;;;;;;;0.10;0.10;;;;;;;18.81;75.57;95127.97;4350406;32;20197;-68
2022/09/08 11:25:18;;;;;;;0.10;0.10;;;;;;;18.76;75.25;95139.00;4323747;32;20189;-69
2022/09/08 11:28:00;;;;;;;0.10;0.10;;;;;;;18.84;74.75;95129.97;4335579;32;20207;-70
2022/09/08 11:30:43;;;;;;;0.10;0.10;;;;;;;18.83;75.06;95136.47;4307574;32;20196;-68
2022/09/08 11:34:04;;;;;;;0.00;0.00;;;;;;;18.73;76.78;95143.16;4347631;32;20224;-69
2022/09/08 11:37:03;;;;;;;0.00;0.00;;;;;;;18.86;76.34;95143.84;4302129;32;20324;-68
2022/09/08 11:39:49;;;;;;;0.53;0.53;;;;;;;19.03;75.92;95150.72;4325198;32;20193;-68
2022/09/08 11:42:58;;;;;;;0.30;0.30;;;;;;;19.05;75.59;95153.84;4322117;32;20178;-68
2022/09/08 11:46:12;;;;;;;0.43;0.43;;;;;;;19.01;75.59;95167.22;4332323;32;20275;-69
2022/09/08 11:49:22;;;;;;;0.27;0.27;;;;;;;18.94;74.79;95169.72;4319133;32;20185;-69
2022/09/08 11:52:25;;;;;;;0.30;0.30;;;;;;;18.86;76.05;95170.72;4293240;33;20384;-68
2022/09/08 11:55:21;;;;;;;0.20;0.20;;;;;;;18.93;76.59;95162.03;4290732;32;20182;-69
2022/09/08 11:58:34;;;;;;;3.63;0.30;;;;;;;18.76;76.63;95158.59;4314495;32;20213;-68
2022/09/08 12:01:30;;;;;;;0.20;0.20;;;;;;;18.73;76.08;95163.88;4337794;32;20243;-68
2022/09/08 12:04:33;;;;;;;0.30;0.30;;;;;;;18.86;75.02;95159.97;4323314;32;20197;-68
2022/09/08 12:07:27;;;;;;;0.00;0.00;;;;;;;18.89;75.85;95159.28;4320625;32;20253;-68
2022/09/08 12:10:21;;;;;;;0.20;0.20;;;;;;;18.93;77.16;95154.72;4330036;32;20208;-68
2022/09/08 12:13:11;;;;;;;0.10;0.10;;;;;;;19.04;76.72;95154.97;4313198;32;20224;-68
2022/09/08 12:16:17;;;;;;;1.20;0.30;;;;;;;19.07;75.16;95155.06;4307780;32;20264;-68
2022/09/08 12:19:28;;;;;;;0.80;0.50;;;;;;;19.07;75.20;95162.34;4330122;32;20181;-69
2022/09/08 12:22:23;;;;;;;0.07;0.07;;;;;;;19.14;77.19;95157.88;4367103;32;20257;-69
2022/09/08 12:25:24;;;;;;;0.00;0.00;;;;;;;19.16;75.07;95157.53;4348426;32;20235;-69
2022/09/08 12:28:34;;;;;;;0.60;0.37;;;;;;;19.12;75.20;95145.94;4350391;32;20181;-69
2022/09/08 12:31:21;;;;;;;3.70;0.57;;;;;;;19.06;75.64;95150.81;4345945;32;20303;-68
2022/09/08 12:34:42;;;;;;;0.20;0.20;;;;;;;19.17;74.50;95145.66;4345462;32;20266;-69
2022/09/08 12:37:41;;;;;;;1.80;0.43;;;;;;;19.20;75.37;95144.94;4313634;33;20204;-68
2022/09/08 12:40:26;;;;;;;0.20;0.20;;;;;;;19.27;75.38;95136.25;4316064;32;20204;-68
2022/09/08 12:43:13;;;;;;;0.50;0.50;;;;;;;19.41;76.13;95148.09;4325708;32;20186;-69
2022/09/08 12:46:14;;;;;;;0.00;0.00;;;;;;;19.57;76.10;95150.72;4320914;33;20237;-66
2022/09/08 12:49:13;;;;;;;0.40;0.40;;;;;;;19.67;74.30;95150.19;4324367;33;20264;-66
2022/09/08 12:51:40;;;;;;;0.20;0.20;;;;;;;19.73;74.97;95143.38;4315408;32;20231;-66